Time;durP1;ratioP1;P1;durP2;ratioP2;P2;SDS_P1;SDS_P2;PMS_P1;PMS_P2;Temp;Humidity;BMP_temperature;BMP_pressure;BME280_temperature;BME280_humidity;BME280_pressure;Samples;Min_cycle;Max_cycle;Signal;HPM_P1;HPM_P2
2023/12/08 00:00:52;;;;;;;12.68;7.30;;;;;;;23.18;50.82;101329.09;2091241;28;20943;-76
2023/12/08 00:01:56;;;;;;;15.43;7.55;;;;;;;23.17;50.76;101322.81;2091091;28;20037;-74
2023/12/08 00:02:57;;;;;;;11.98;7.28;;;;;;;23.18;50.76;101318.13;2082256;28;20058;-75
2023/12/08 00:03:59;;;;;;;12.75;7.10;;;;;;;23.19;50.77;101320.53;2073972;28;20250;-75
2023/12/08 00:05:01;;;;;;;10.95;6.82;;;;;;;23.17;50.77;101309.13;2082497;28;20217;-74
2023/12/08 00:06:07;;;;;;;12.93;7.05;;;;;;;23.18;50.76;101312.66;2089660;28;20146;-75
2023/12/08 00:07:08;;;;;;;12.07;6.80;;;;;;;23.19;50.70;101306.00;2073975;28;20149;-74
2023/12/08 00:08:11;;;;;;;13.57;7.57;;;;;;;23.18;50.67;101316.19;2080971;28;20045;-74
2023/12/08 00:09:13;;;;;;;13.93;7.85;;;;;;;23.18;50.78;101316.19;2095195;28;20053;-75
2023/12/08 00:10:19;;;;;;;12.95;6.97;;;;;;;23.18;50.65;101312.66;2090609;28;20029;-74
2023/12/08 00:11:29;;;;;;;13.15;7.55;;;;;;;23.17;50.68;101319.25;2083800;28;20033;-74
2023/12/08 00:12:31;;;;;;;13.32;7.45;;;;;;;23.18;50.60;101318.13;2091721;28;20823;-74
2023/12/08 00:13:34;;;;;;;12.57;6.63;;;;;;;23.19;50.63;101319.72;2090621;28;20063;-74
2023/12/08 00:14:36;;;;;;;13.18;7.10;;;;;;;23.18;50.64;101318.94;2074246;28;20041;-74
2023/12/08 00:15:38;;;;;;;10.77;6.78;;;;;;;23.18;50.65;101316.19;2082724;28;20029;-74
2023/12/08 00:16:43;;;;;;;11.35;6.78;;;;;;;23.18;50.60;101318.94;2090218;28;20096;-74
2023/12/08 00:17:45;;;;;;;14.13;7.32;;;;;;;23.17;50.45;101309.13;2082947;28;20042;-74
2023/12/08 00:18:47;;;;;;;13.50;8.07;;;;;;;23.16;50.65;101310.25;2082043;28;20947;-74
2023/12/08 00:19:58;;;;;;;12.65;7.10;;;;;;;23.18;50.51;101310.69;2090995;28;20864;-74
2023/12/08 00:21:00;;;;;;;13.23;7.40;;;;;;;23.17;50.50;101316.53;2091374;28;20852;-74
2023/12/08 00:22:02;;;;;;;14.52;7.20;;;;;;;23.18;50.52;101318.13;2090576;28;20034;-74
2023/12/08 00:23:04;;;;;;;11.18;7.13;;;;;;;23.17;50.48;101320.09;2082354;28;20030;-74
2023/12/08 00:24:11;;;;;;;15.05;7.30;;;;;;;23.18;50.38;101329.91;2090766;28;20804;-74
2023/12/08 00:25:16;;;;;;;11.95;6.80;;;;;;;23.18;50.56;101331.84;2098889;28;20037;-74
2023/12/08 00:26:17;;;;;;;11.02;6.88;;;;;;;23.19;50.46;101330.69;2098710;28;20021;-72
2023/12/08 00:27:23;;;;;;;12.23;7.10;;;;;;;23.16;50.43;101326.69;2082254;28;21283;-73
2023/12/08 00:28:26;;;;;;;12.18;7.43;;;;;;;23.17;50.39;101328.31;2083127;28;20069;-73
2023/12/08 00:29:27;;;;;;;13.55;7.43;;;;;;;23.18;50.32;101324.41;2081805;28;20827;-74
2023/12/08 00:30:29;;;;;;;14.90;7.68;;;;;;;23.18;50.30;101318.94;2074015;28;20033;-73
2023/12/08 00:31:31;;;;;;;12.32;7.35;;;;;;;23.17;50.37;101317.34;2073976;28;20026;-73
2023/12/08 00:32:35;;;;;;;13.18;7.15;;;;;;;23.17;50.31;101322.81;2067452;28;20082;-72
2023/12/08 00:33:36;;;;;;;12.93;7.47;;;;;;;23.19;50.21;101322.47;2082665;28;20128;-74
2023/12/08 00:34:38;;;;;;;12.25;7.53;;;;;;;23.17;50.15;101317.34;2082634;28;20022;-74
2023/12/08 00:35:42;;;;;;;14.25;7.40;;;;;;;23.18;50.30;101310.69;2091307;28;20029;-74
2023/12/08 00:36:45;;;;;;;11.55;7.28;;;;;;;23.18;50.16;101309.91;2098879;28;20232;-74
2023/12/08 00:37:51;;;;;;;14.63;7.03;;;;;;;23.18;50.23;101316.19;2082502;28;20042;-74
2023/12/08 00:38:55;;;;;;;11.32;6.97;;;;;;;23.18;50.24;101316.19;2075894;28;20077;-74
2023/12/08 00:39:58;;;;;;;11.50;7.28;;;;;;;23.17;50.02;101317.34;2090965;28;20021;-74
2023/12/08 00:41:02;;;;;;;12.88;7.38;;;;;;;23.17;50.09;101322.81;2107212;28;20021;-74
2023/12/08 00:42:07;;;;;;;14.30;7.50;;;;;;;23.18;50.15;101329.09;2098798;28;20021;-71
2023/12/08 00:43:09;;;;;;;12.07;7.43;;;;;;;23.18;50.04;101329.09;2099124;28;20025;-71
2023/12/08 00:44:12;;;;;;;11.13;7.13;;;;;;;23.17;50.04;101322.81;2098515;28;20029;-71
2023/12/08 00:45:15;;;;;;;12.48;7.05;;;;;;;23.16;49.97;101332.19;2090860;28;20856;-71
2023/12/08 00:46:19;;;;;;;13.15;7.28;;;;;;;23.17;49.86;101328.31;2098375;28;20091;-71
2023/12/08 00:47:22;;;;;;;12.55;7.45;;;;;;;23.18;49.94;101324.41;2099623;28;20033;-71
2023/12/08 00:48:24;;;;;;;12.65;7.07;;;;;;;23.17;49.94;101325.56;2107208;28;20139;-72
2023/12/08 00:49:26;;;;;;;14.60;7.70;;;;;;;23.17;49.85;101325.56;2098808;28;20063;-71
2023/12/08 00:50:28;;;;;;;12.25;7.60;;;;;;;23.16;49.92;101325.91;2090345;28;20114;-72
2023/12/08 00:51:30;;;;;;;13.43;6.75;;;;;;;23.18;49.84;101334.59;2090754;28;20034;-72
2023/12/08 00:52:32;;;;;;;11.10;6.55;;;;;;;23.17;49.86;101328.31;2090417;28;20115;-72
2023/12/08 00:53:34;;;;;;;12.98;6.80;;;;;;;23.16;49.78;101321.22;2082254;28;20026;-71
2023/12/08 00:54:36;;;;;;;10.80;6.82;;;;;;;23.17;49.88;101320.09;2082408;28;20037;-71
2023/12/08 00:55:39;;;;;;;12.85;7.05;;;;;;;23.16;49.80;101318.47;2098943;28;20025;-71
2023/12/08 00:56:41;;;;;;;12.80;6.93;;;;;;;23.16;49.77;101312.19;2107247;28;20059;-71
2023/12/08 00:57:48;;;;;;;12.02;7.53;;;;;;;23.17;49.78;101322.81;2090621;28;20033;-71
2023/12/08 00:58:53;;;;;;;11.73;7.40;;;;;;;23.16;49.67;101326.69;2074501;28;20064;-71
2023/12/08 00:59:58;;;;;;;11.23;6.75;;;;;;;23.17;49.73;101327.50;2084273;28;20038;-71
2023/12/08 01:01:01;;;;;;;11.60;6.72;;;;;;;23.16;49.64;101326.69;2107033;28;20911;-71
2023/12/08 01:02:03;;;;;;;13.65;7.50;;;;;;;23.17;49.73;101332.97;2107180;28;20864;-71
2023/12/08 01:03:07;;;;;;;11.52;6.75;;;;;;;23.16;49.68;101321.22;2107101;28;20079;-71
2023/12/08 01:04:13;;;;;;;11.55;7.15;;;;;;;23.17;49.69;101332.97;2107446;28;20032;-72
2023/12/08 01:05:17;;;;;;;10.52;6.97;;;;;;;23.16;49.64;101323.94;2115559;28;20013;-71
2023/12/08 01:06:26;;;;;;;12.15;7.13;;;;;;;23.15;49.45;101325.09;2107027;28;20044;-71
2023/12/08 01:07:28;;;;;;;12.85;7.05;;;;;;;23.16;49.57;101320.41;2091282;28;20068;-71
2023/12/08 01:08:36;;;;;;;9.95;6.78;;;;;;;23.15;49.45;101318.81;2091119;28;20045;-71
2023/12/08 01:09:39;;;;;;;11.55;7.05;;;;;;;23.16;49.52;101325.91;2107704;28;20146;-72
2023/12/08 01:10:41;;;;;;;11.65;7.10;;;;;;;23.15;49.61;101325.09;2098770;28;20044;-72
2023/12/08 01:11:45;;;;;;;12.07;7.30;;;;;;;23.15;49.61;101316.09;2090919;28;20884;-71
2023/12/08 01:12:46;;;;;;;12.02;6.97;;;;;;;23.15;49.61;101325.09;2090622;28;20865;-71
2023/12/08 01:13:48;;;;;;;12.07;6.97;;;;;;;23.15;49.48;101316.09;2090756;28;20045;-71
2023/12/08 01:14:52;;;;;;;10.35;6.72;;;;;;;23.17;49.43;101322.00;2107397;28;21341;-71
2023/12/08 01:15:55;;;;;;;11.88;6.72;;;;;;;23.16;49.54;101326.69;2108201;28;20851;-71
2023/12/08 01:16:58;;;;;;;11.02;6.97;;;;;;;23.14;49.49;101323.53;2107070;28;21026;-71
2023/12/08 01:18:00;;;;;;;12.25;6.68;;;;;;;23.15;49.53;101321.56;2098957;28;20025;-71
2023/12/08 01:19:03;;;;;;;11.10;7.20;;;;;;;23.15;49.53;101324.31;2106955;28;20058;-71
2023/12/08 01:20:09;;;;;;;11.68;7.15;;;;;;;23.14;49.43;101329.00;2106975;28;20804;-72
2023/12/08 01:21:12;;;;;;;14.25;7.55;;;;;;;23.15;49.53;101327.06;2091146;28;20041;-70
2023/12/08 01:22:14;;;;;;;12.30;6.75;;;;;;;23.16;49.36;101325.91;2082550;28;20883;-70
2023/12/08 01:23:16;;;;;;;10.98;6.82;;;;;;;23.15;49.35;101321.56;2090488;28;20857;-69
2023/12/08 01:24:18;;;;;;;10.73;7.07;;;;;;;23.16;49.38;101334.13;2098990;28;20033;-70
2023/12/08 01:25:23;;;;;;;13.88;6.90;;;;;;;23.16;49.47;101332.19;2098506;28;20878;-70
2023/12/08 01:26:25;;;;;;;12.38;7.50;;;;;;;23.13;49.42;101327.38;2107336;28;20947;-70
2023/12/08 01:27:29;;;;;;;13.70;7.47;;;;;;;23.15;49.50;101332.53;2107284;28;20044;-70
2023/12/08 01:28:31;;;;;;;14.18;7.13;;;;;;;23.15;49.40;101330.59;2106858;28;20037;-69
2023/12/08 01:29:33;;;;;;;13.40;7.18;;;;;;;23.15;49.45;101336.09;2098069;28;20029;-70
2023/12/08 01:30:35;;;;;;;12.23;7.03;;;;;;;23.16;49.42;101331.38;2098751;28;20033;-70
2023/12/08 01:31:37;;;;;;;11.20;7.18;;;;;;;23.16;49.25;101334.94;2098809;28;20029;-71
2023/12/08 01:32:38;;;;;;;13.68;6.93;;;;;;;23.15;49.34;101329.81;2090060;28;20041;-71
2023/12/08 01:33:41;;;;;;;11.38;7.20;;;;;;;23.16;49.29;101329.44;2082326;28;20037;-71
2023/12/08 01:34:44;;;;;;;12.48;6.93;;;;;;;23.15;49.32;101325.09;2098839;28;20032;-71
2023/12/08 01:35:45;;;;;;;10.00;6.90;;;;;;;23.15;49.25;101316.88;2115262;27;20035;-71
2023/12/08 01:36:48;;;;;;;12.77;7.63;;;;;;;23.16;49.20;101325.91;2106961;28;20898;-71
2023/12/08 01:37:49;;;;;;;12.45;7.20;;;;;;;23.14;49.30;101318.03;2098874;28;20866;-71
2023/12/08 01:38:51;;;;;;;11.63;6.78;;;;;;;23.15;49.13;101307.84;2098360;28;20120;-71
2023/12/08 01:39:52;;;;;;;14.02;7.70;;;;;;;23.14;49.29;101312.56;2107000;28;20042;-71
2023/12/08 01:40:53;;;;;;;12.50;7.07;;;;;;;23.17;49.21;101322.81;2115671;28;20020;-71
2023/12/08 01:41:58;;;;;;;12.10;7.00;;;;;;;23.15;49.13;101318.81;2106775;28;20028;-72
2023/12/08 01:43:00;;;;;;;12.02;7.15;;;;;;;23.16;49.14;101323.94;2099154;28;20084;-72
2023/12/08 01:44:03;;;;;;;10.80;6.80;;;;;;;23.16;49.05;101312.97;2107301;28;20090;-69
2023/12/08 01:45:08;;;;;;;12.95;7.13;;;;;;;23.17;49.14;101322.00;2115419;28;20563;-73
2023/12/08 01:46:17;;;;;;;12.80;7.55;;;;;;;23.16;49.05;101314.94;2106879;28;20024;-72
2023/12/08 01:47:19;;;;;;;11.07;7.00;;;;;;;23.16;49.07;101321.22;2100125;28;20787;-72
2023/12/08 01:48:22;;;;;;;11.55;7.25;;;;;;;23.16;49.21;101315.72;2098430;28;20415;-74
2023/12/08 01:49:23;;;;;;;12.38;7.03;;;;;;;23.16;49.22;101309.44;2107022;28;20033;-73
2023/12/08 01:50:26;;;;;;;16.63;7.55;;;;;;;23.15;49.13;101313.34;2107084;28;20867;-73
2023/12/08 01:51:28;;;;;;;11.68;7.20;;;;;;;23.16;49.09;101312.97;2107000;28;20033;-75
2023/12/08 01:52:30;;;;;;;10.63;6.63;;;;;;;23.16;49.11;101323.94;2106807;28;20058;-73
2023/12/08 01:53:33;;;;;;;17.80;9.82;;;;;;;23.15;48.99;101318.81;2106862;28;20063;-73
2023/12/08 01:54:35;;;;;;;19.88;10.88;;;;;;;23.11;48.49;101318.72;2106809;28;20036;-73
2023/12/08 01:55:36;;;;;;;20.60;11.38;;;;;;;23.10;47.89;101322.59;2107103;28;21175;-73
2023/12/08 01:56:40;;;;;;;21.67;11.88;;;;;;;23.06;47.38;101322.47;2114799;28;20874;-75
2023/12/08 01:57:43;;;;;;;24.40;11.45;;;;;;;23.04;46.95;101329.44;2098317;28;20048;-75
2023/12/08 01:58:45;;;;;;;24.88;11.98;;;;;;;22.97;46.55;101327.28;2098856;28;20040;-75
2023/12/08 01:59:48;;;;;;;26.20;13.43;;;;;;;22.91;46.17;101325.88;2098496;28;20071;-73
2023/12/08 02:00:52;;;;;;;26.15;13.07;;;;;;;22.87;45.92;101328.53;2090448;28;20029;-74
2023/12/08 02:01:58;;;;;;;24.98;13.38;;;;;;;22.80;45.41;101325.56;2107276;28;20059;-74
2023/12/08 02:03:00;;;;;;;24.98;13.35;;;;;;;22.74;45.14;101329.66;2107237;28;20029;-76
2023/12/08 02:04:02;;;;;;;25.40;13.48;;;;;;;22.68;44.79;101331.84;2106876;28;21306;-74
2023/12/08 02:05:05;;;;;;;28.05;14.07;;;;;;;22.62;44.63;101329.66;2089975;28;20068;-75
2023/12/08 02:06:10;;;;;;;30.83;14.63;;;;;;;22.55;44.29;101329.44;2099811;28;20141;-75
2023/12/08 02:07:13;;;;;;;28.95;15.13;;;;;;;22.50;44.31;101326.91;2098163;28;20041;-74
2023/12/08 02:08:15;;;;;;;28.40;14.65;;;;;;;22.43;44.14;101317.31;2099073;28;20013;-75
2023/12/08 02:09:17;;;;;;;27.50;14.35;;;;;;;22.37;43.91;101321.41;2098340;28;20080;-75
2023/12/08 02:10:19;;;;;;;30.85;15.13;;;;;;;22.31;43.75;101322.75;2089913;28;20018;-75
2023/12/08 02:11:20;;;;;;;29.02;14.93;;;;;;;22.27;43.74;101324.59;2090121;28;20069;-75
2023/12/08 02:12:22;;;;;;;28.48;14.77;;;;;;;22.23;43.79;101322.88;2090538;28;20028;-75
2023/12/08 02:13:27;;;;;;;26.63;14.18;;;;;;;22.18;43.54;101321.13;2090015;28;20896;-74
2023/12/08 02:14:29;;;;;;;29.15;15.00;;;;;;;22.13;43.55;101324.06;2090754;28;20036;-74
2023/12/08 02:15:31;;;;;;;31.90;15.10;;;;;;;22.09;43.41;101320.41;2098354;28;20044;-74
2023/12/08 02:17:02;;;;;;;31.35;15.70;;;;;;;22.03;43.48;101325.28;2106869;28;20032;-73
2023/12/08 02:18:04;;;;;;;27.42;14.55;;;;;;;21.98;43.08;101322.78;2099299;28;20159;-75
2023/12/08 02:19:13;;;;;;;32.85;15.82;;;;;;;21.94;43.03;101316.34;2106845;28;20024;-73
2023/12/08 02:20:15;;;;;;;30.77;15.40;;;;;;;21.89;42.86;101322.84;2106690;28;20032;-73
2023/12/08 02:21:18;;;;;;;30.15;15.38;;;;;;;21.85;42.90;101312.91;2107339;28;20017;-73
2023/12/08 02:22:23;;;;;;;30.20;15.10;;;;;;;21.80;42.93;101322.13;2106754;28;20033;-73
2023/12/08 02:23:25;;;;;;;31.48;15.77;;;;;;;21.77;42.84;101320.06;2099264;28;20021;-72
2023/12/08 02:24:30;;;;;;;32.03;16.60;;;;;;;21.72;42.69;101321.06;2098509;28;20788;-72
2023/12/08 02:25:35;;;;;;;35.33;16.65;;;;;;;21.67;42.66;101318.53;2107660;28;20044;-72
2023/12/08 02:26:38;;;;;;;32.63;15.82;;;;;;;21.65;42.60;101322.75;2098025;28;20071;-72
2023/12/08 02:27:42;;;;;;;30.83;15.73;;;;;;;21.60;42.70;101318.28;2099546;28;20033;-72
2023/12/08 02:28:48;;;;;;;27.58;14.93;;;;;;;21.58;42.50;101325.22;2098746;28;20040;-72
2023/12/08 02:29:50;;;;;;;31.83;17.10;;;;;;;21.56;42.50;101319.28;2090686;28;20071;-72
2023/12/08 02:30:56;;;;;;;36.13;16.13;;;;;;;21.49;42.61;101312.41;2098824;28;20826;-72
2023/12/08 02:32:08;;;;;;;32.80;16.35;;;;;;;21.49;42.39;101328.00;2089993;28;20880;-72
2023/12/08 02:33:18;;;;;;;31.80;16.20;;;;;;;21.46;42.42;101324.00;2087356;28;20054;-72
2023/12/08 02:34:21;;;;;;;31.17;16.60;;;;;;;21.42;42.41;101325.81;2082948;28;20038;-72
2023/12/08 02:35:25;;;;;;;30.00;15.88;;;;;;;21.40;42.10;101330.81;2082345;28;20037;-72
2023/12/08 02:36:28;;;;;;;31.77;16.48;;;;;;;21.36;42.06;101324.41;2089956;28;20033;-72
2023/12/08 02:37:34;;;;;;;30.50;16.45;;;;;;;21.35;42.10;101338.41;2098575;28;20013;-72
2023/12/08 02:38:36;;;;;;;30.60;15.35;;;;;;;21.31;41.98;101338.25;2106534;28;20063;-72
2023/12/08 02:39:40;;;;;;;32.92;15.98;;;;;;;21.29;42.01;101332.31;2090226;28;20021;-72
2023/12/08 02:40:42;;;;;;;29.77;15.95;;;;;;;21.27;42.06;101329.09;2082035;28;20137;-72
2023/12/08 02:41:44;;;;;;;32.33;15.90;;;;;;;21.26;42.08;101330.25;2082166;28;20030;-72
2023/12/08 02:42:46;;;;;;;31.13;16.77;;;;;;;21.23;42.18;101333.66;2098391;28;20071;-71
2023/12/08 02:43:52;;;;;;;35.97;16.92;;;;;;;21.22;42.14;101329.31;2107192;28;20067;-72
2023/12/08 02:44:54;;;;;;;31.13;16.20;;;;;;;21.18;41.93;101325.63;2106755;28;20826;-72
2023/12/08 02:45:56;;;;;;;30.90;15.70;;;;;;;21.16;41.92;101325.19;2106684;28;20135;-72
2023/12/08 02:46:59;;;;;;;31.48;16.38;;;;;;;21.14;41.79;101333.69;2106100;28;20036;-72
2023/12/08 02:48:01;;;;;;;34.08;16.10;;;;;;;21.13;41.74;101328.56;2098435;28;20044;-72
2023/12/08 02:49:03;;;;;;;29.73;16.90;;;;;;;21.11;41.94;101331.63;2106197;28;20036;-72
2023/12/08 02:50:07;;;;;;;33.83;16.55;;;;;;;21.09;41.63;101335.81;2106668;28;20028;-72
2023/12/08 02:51:09;;;;;;;34.63;16.58;;;;;;;21.06;41.69;101338.09;2089999;28;20029;-72
2023/12/08 02:52:10;;;;;;;31.35;15.57;;;;;;;21.05;41.55;101339.22;2090092;28;20075;-73
2023/12/08 02:53:13;;;;;;;30.95;16.13;;;;;;;21.03;41.72;101327.81;2098251;28;20103;-73
2023/12/08 02:54:15;;;;;;;30.88;16.08;;;;;;;21.01;41.65;101332.81;2115269;28;20035;-73
2023/12/08 02:55:19;;;;;;;31.27;16.27;;;;;;;20.99;41.63;101326.06;2106227;28;20025;-73
2023/12/08 02:56:21;;;;;;;30.48;15.77;;;;;;;20.98;41.49;101332.66;2107122;28;20037;-73
2023/12/08 02:57:25;;;;;;;29.73;16.27;;;;;;;20.96;41.52;101327.50;2106528;28;20959;-73
2023/12/08 02:58:34;;;;;;;29.35;15.07;;;;;;;20.96;41.51;101332.19;2098688;28;20033;-74
2023/12/08 02:59:36;;;;;;;27.92;14.40;;;;;;;20.92;41.53;101332.06;2098755;28;20045;-73
2023/12/08 03:00:37;;;;;;;27.05;14.05;;;;;;;20.91;41.57;101335.13;2098015;28;20029;-73
2023/12/08 03:01:42;;;;;;;30.52;15.50;;;;;;;20.88;41.66;101333.06;2106325;28;20045;-73
2023/12/08 03:02:47;;;;;;;31.05;16.13;;;;;;;20.87;41.49;101339.63;2107501;28;20864;-73
2023/12/08 03:03:53;;;;;;;31.98;16.05;;;;;;;20.86;41.68;101335.31;2107243;28;20202;-73
2023/12/08 03:04:54;;;;;;;30.88;16.15;;;;;;;20.81;41.58;101331.63;2107304;28;20105;-74
2023/12/08 03:05:59;;;;;;;32.60;16.15;;;;;;;20.82;41.70;101335.97;2097893;28;20136;-73
2023/12/08 03:07:06;;;;;;;26.30;13.95;;;;;;;20.79;41.55;101335.81;2091734;28;20728;-73
2023/12/08 03:08:08;;;;;;;25.70;14.63;;;;;;;20.76;41.43;101331.81;2106104;28;20028;-74
2023/12/08 03:09:10;;;;;;;31.88;16.52;;;;;;;20.75;41.52;101332.94;2106826;28;20044;-75
2023/12/08 03:10:15;;;;;;;28.65;15.15;;;;;;;20.75;41.40;101330.22;2098129;28;20132;-75
2023/12/08 03:11:18;;;;;;;28.20;14.75;;;;;;;20.75;41.58;101337.63;2098460;28;20824;-74
2023/12/08 03:12:22;;;;;;;29.95;14.68;;;;;;;20.73;41.66;101337.94;2106936;28;20025;-74
2023/12/08 03:13:24;;;;;;;26.90;14.18;;;;;;;20.73;41.53;101342.59;2097963;28;21168;-73
2023/12/08 03:14:28;;;;;;;30.13;14.35;;;;;;;20.72;41.70;101341.78;2098483;28;20029;-74
2023/12/08 03:15:34;;;;;;;31.40;15.35;;;;;;;20.70;41.46;101346.78;2106608;28;20110;-74
2023/12/08 03:16:37;;;;;;;30.63;14.73;;;;;;;20.70;41.74;101351.44;2090242;28;20132;-74
2023/12/08 03:17:39;;;;;;;27.75;15.40;;;;;;;20.69;41.56;101349.84;2098146;28;20029;-74
2023/12/08 03:18:44;;;;;;;28.63;14.60;;;;;;;20.68;41.73;101349.06;2106296;28;20021;-73
2023/12/08 03:19:48;;;;;;;30.98;14.55;;;;;;;20.67;41.75;101346.63;2098770;28;20884;-74
2023/12/08 03:20:53;;;;;;;29.13;14.13;;;;;;;20.67;41.84;101341.16;2106799;28;20062;-71
2023/12/08 03:21:57;;;;;;;29.92;13.73;;;;;;;20.66;41.68;101345.03;2098385;28;20118;-72
2023/12/08 03:23:10;;;;;;;30.73;14.25;;;;;;;20.65;41.56;101341.50;2101338;28;20075;-71
2023/12/08 03:24:12;;;;;;;28.50;13.82;;;;;;;20.64;41.50;101339.09;2108860;28;20869;-71
2023/12/08 03:25:19;;;;;;;28.63;13.75;;;;;;;20.63;41.50;101335.56;2108569;28;20740;-71
2023/12/08 03:26:22;;;;;;;24.77;13.65;;;;;;;20.64;41.57;101341.81;2116274;28;20131;-72
2023/12/08 03:27:24;;;;;;;26.55;13.75;;;;;;;20.62;41.69;101333.97;2111129;28;20825;-71
2023/12/08 03:28:29;;;;;;;27.40;15.38;;;;;;;20.62;41.76;101333.97;2116372;28;20123;-71
2023/12/08 03:29:32;;;;;;;26.48;14.48;;;;;;;20.62;41.61;101335.88;2115988;28;20028;-71
2023/12/08 03:30:36;;;;;;;27.05;14.25;;;;;;;20.62;41.44;101338.59;2116288;28;20031;-71
2023/12/08 03:31:40;;;;;;;27.48;13.38;;;;;;;20.61;41.66;101329.63;2116861;27;20134;-71
2023/12/08 03:32:41;;;;;;;28.10;14.23;;;;;;;20.60;41.44;101341.69;2116315;28;20039;-71
2023/12/08 03:33:44;;;;;;;28.65;14.35;;;;;;;20.60;41.52;101342.47;2116301;28;20074;-71
2023/12/08 03:34:46;;;;;;;27.48;13.93;;;;;;;20.56;41.58;101327.09;2124727;27;20089;-71
2023/12/08 03:35:48;;;;;;;26.27;13.40;;;;;;;20.59;41.47;101335.41;2107661;28;20945;-71
2023/12/08 03:36:53;;;;;;;26.10;12.82;;;;;;;20.57;41.35;101329.47;2100652;28;20107;-73
2023/12/08 03:37:59;;;;;;;22.48;12.40;;;;;;;20.58;41.36;101339.25;2116083;28;20031;-72
2023/12/08 03:39:03;;;;;;;28.83;14.57;;;;;;;20.58;41.47;101333.81;2107710;28;21072;-74
2023/12/08 03:40:08;;;;;;;26.90;13.27;;;;;;;20.57;41.43;101337.66;2108269;28;20136;-73
2023/12/08 03:41:13;;;;;;;26.23;12.55;;;;;;;20.57;41.56;101331.41;2116090;28;20032;-73
2023/12/08 03:42:20;;;;;;;25.02;12.88;;;;;;;20.56;41.32;101330.59;2115919;28;20934;-73
2023/12/08 03:43:26;;;;;;;28.08;13.02;;;;;;;20.56;41.23;101336.06;2114775;28;20143;-73
2023/12/08 03:44:30;;;;;;;24.67;12.77;;;;;;;20.56;41.34;101327.09;2125142;27;20138;-74
2023/12/08 03:45:34;;;;;;;26.95;13.13;;;;;;;20.56;41.46;101341.53;2107589;28;20151;-73
2023/12/08 03:46:37;;;;;;;23.33;12.07;;;;;;;20.52;41.32;101320.66;2100612;28;20020;-73
2023/12/08 03:47:42;;;;;;;23.73;12.88;;;;;;;20.54;41.35;101335.59;2107911;28;20048;-73
2023/12/08 03:48:46;;;;;;;23.98;11.70;;;;;;;20.54;41.19;101323.88;2107620;28;20021;-73
2023/12/08 03:49:48;;;;;;;26.45;12.43;;;;;;;20.52;41.29;101324.22;2107281;28;20041;-73
2023/12/08 03:50:50;;;;;;;27.33;13.35;;;;;;;20.51;41.12;101325.31;2115250;27;20040;-73
2023/12/08 03:51:55;;;;;;;23.45;12.38;;;;;;;20.52;41.35;101320.66;2115804;27;20873;-73
2023/12/08 03:53:02;;;;;;;24.92;12.73;;;;;;;20.51;41.21;101317.13;2116064;27;20969;-74
2023/12/08 03:54:05;;;;;;;25.60;12.77;;;;;;;20.50;41.27;101315.50;2115580;27;20035;-73
2023/12/08 03:55:09;;;;;;;27.83;12.70;;;;;;;20.49;41.22;101311.16;2115133;28;20036;-72
2023/12/08 03:56:11;;;;;;;23.85;12.75;;;;;;;20.49;40.94;101316.63;2106858;28;20955;-72
2023/12/08 03:57:16;;;;;;;24.95;12.77;;;;;;;20.48;41.03;101316.94;2115272;28;20039;-72
2023/12/08 03:58:23;;;;;;;26.52;13.02;;;;;;;20.48;41.12;101315.00;2115112;28;20144;-72
2023/12/08 03:59:26;;;;;;;22.95;12.35;;;;;;;20.48;40.95;101317.75;2115509;28;20027;-72
2023/12/08 04:00:30;;;;;;;27.17;12.70;;;;;;;20.47;40.99;101320.81;2115209;27;20036;-72
2023/12/08 04:01:39;;;;;;;26.15;13.48;;;;;;;20.46;41.01;101317.28;2115632;27;20131;-72
2023/12/08 04:02:41;;;;;;;27.98;14.25;;;;;;;20.45;40.96;101317.59;2115292;28;20077;-72
2023/12/08 04:03:43;;;;;;;27.63;13.90;;;;;;;20.44;40.68;101314.06;2115888;27;20110;-72
2023/12/08 04:04:45;;;;;;;25.55;13.73;;;;;;;20.40;40.77;101309.56;2115943;28;20027;-72
2023/12/08 04:05:49;;;;;;;27.88;13.50;;;;;;;20.42;40.76;101307.31;2107973;28;20144;-72
2023/12/08 04:06:51;;;;;;;28.90;13.85;;;;;;;20.41;40.56;101301.06;2115923;28;20955;-72
2023/12/08 04:07:56;;;;;;;28.88;13.25;;;;;;;20.40;40.43;101304.94;2116891;27;20020;-72
2023/12/08 04:08:58;;;;;;;25.15;13.38;;;;;;;20.39;40.53;101303.31;2107395;28;20117;-72
2023/12/08 04:10:00;;;;;;;28.52;13.10;;;;;;;20.37;40.45;101291.94;2099694;28;21117;-72
2023/12/08 04:11:03;;;;;;;23.90;13.13;;;;;;;20.36;40.60;101298.50;2115879;28;20028;-72
2023/12/08 04:12:05;;;;;;;26.90;13.00;;;;;;;20.35;40.49;101300.44;2115864;28;20102;-74
2023/12/08 04:13:09;;;;;;;28.15;13.60;;;;;;;20.35;40.65;101296.91;2107918;28;20110;-74
2023/12/08 04:14:16;;;;;;;28.88;13.98;;;;;;;20.32;40.37;101290.16;2099944;28;20104;-73
2023/12/08 04:15:17;;;;;;;25.02;13.77;;;;;;;20.33;40.42;101293.69;2091810;28;20025;-73
2023/12/08 04:16:20;;;;;;;25.52;14.02;;;;;;;20.32;40.35;101297.56;2099496;28;20961;-73
2023/12/08 04:17:22;;;;;;;25.40;13.60;;;;;;;20.31;40.39;101290.50;2099466;28;20151;-73
2023/12/08 04:18:24;;;;;;;25.92;13.02;;;;;;;20.31;40.44;101290.50;2091063;28;20041;-73
2023/12/08 04:19:27;;;;;;;26.75;14.10;;;;;;;20.30;40.32;101294.34;2091697;28;20068;-73
2023/12/08 04:20:32;;;;;;;27.00;13.48;;;;;;;20.29;40.44;101287.28;2108011;28;20930;-73
2023/12/08 04:21:33;;;;;;;26.40;13.35;;;;;;;20.27;40.35;101290.34;2099512;28;20129;-72
2023/12/08 04:22:35;;;;;;;28.73;14.10;;;;;;;20.27;40.44;101289.53;2108121;28;20035;-72
2023/12/08 04:23:38;;;;;;;26.77;13.35;;;;;;;20.26;40.33;101291.47;2115658;28;20024;-72
2023/12/08 04:24:39;;;;;;;26.05;13.75;;;;;;;20.26;40.44;101294.19;2099467;28;20021;-71
2023/12/08 04:25:41;;;;;;;24.48;13.50;;;;;;;20.26;40.50;101285.22;2090506;28;20029;-72
2023/12/08 04:26:45;;;;;;;25.60;13.60;;;;;;;20.25;40.39;101292.59;2092310;28;20049;-72
2023/12/08 04:27:52;;;;;;;26.50;13.70;;;;;;;20.23;40.33;101292.13;2107337;28;20067;-72
2023/12/08 04:28:57;;;;;;;25.90;13.30;;;;;;;20.24;40.51;101290.19;2109340;28;20041;-72
2023/12/08 04:30:01;;;;;;;26.08;12.63;;;;;;;20.24;40.31;101290.19;2124093;27;20020;-72
2023/12/08 04:31:05;;;;;;;25.52;12.40;;;;;;;20.23;40.30;101289.38;2124110;27;20069;-72
2023/12/08 04:32:08;;;;;;;27.70;14.18;;;;;;;20.23;40.48;101286.66;2123915;27;20043;-72
2023/12/08 04:33:12;;;;;;;23.60;13.32;;;;;;;20.23;40.36;101285.84;2115891;27;20925;-70
2023/12/08 04:34:15;;;;;;;25.88;13.25;;;;;;;20.23;40.39;101288.59;2107855;28;20049;-70
2023/12/08 04:35:20;;;;;;;26.27;13.00;;;;;;;20.21;40.30;101286.19;2107812;28;20968;-70
2023/12/08 04:36:22;;;;;;;29.48;13.68;;;;;;;20.21;40.31;101285.38;2107840;28;20932;-70
2023/12/08 04:37:24;;;;;;;25.40;13.65;;;;;;;20.20;40.23;101289.25;2107642;28;20033;-70
2023/12/08 04:38:29;;;;;;;27.73;14.07;;;;;;;20.18;40.30;101296.97;2091341;28;20021;-70
2023/12/08 04:39:32;;;;;;;28.05;13.32;;;;;;;20.18;40.28;101291.50;2100392;28;20175;-72
2023/12/08 04:40:33;;;;;;;25.42;12.45;;;;;;;20.16;40.20;101294.56;2124487;27;20034;-72
2023/12/08 04:41:36;;;;;;;22.52;12.68;;;;;;;20.17;40.25;101295.34;2116061;28;20024;-72
2023/12/08 04:42:38;;;;;;;24.23;12.85;;;;;;;20.16;40.02;101285.56;2115854;28;20036;-72
2023/12/08 04:43:41;;;;;;;23.75;12.43;;;;;;;20.15;40.11;101292.97;2116084;28;20102;-71
2023/12/08 04:44:45;;;;;;;24.85;12.63;;;;;;;20.14;40.12;101292.16;2107918;28;20865;-72
2023/12/08 04:45:50;;;;;;;25.13;14.00;;;;;;;20.14;40.04;101291.34;2108605;28;20894;-72
2023/12/08 04:46:55;;;;;;;26.42;13.23;;;;;;;20.10;39.86;101293.91;2107644;28;20031;-72
2023/12/08 04:47:58;;;;;;;29.25;13.38;;;;;;;20.11;40.02;101301.00;2099704;28;20021;-72
2023/12/08 04:48:59;;;;;;;28.05;13.57;;;;;;;20.09;39.90;101284.13;2090935;28;20143;-72
2023/12/08 04:50:04;;;;;;;28.63;14.43;;;;;;;20.08;39.90;101288.00;2099308;28;20036;-72